x

Yucatan Basin - 120 Nm Ese Of Cozumel, Mx (42056) Wave Buoy

10:50 - Wed 26th Nov 2014 All times are CST. -6 hours from GMT.

  • Sig Wave height 4.6ft
  • Swell Direction
  • Peak Period 5s
  • Average Period 5s
  • Wind
    20mph, 29mph gusts
  • Sea Temp 83°f
  • Air Temp 77°f
  • Sea Pressure 1016.7mb
  •  Yucatan Basin - 120 Nm Ese Of Cozumel, Mx
  •  Yucatan Basin - 120 Nm Ese Of Cozumel, Mx

More Historic Weather Station data

Upgrade to MSW Pro to gain access to the past 30 days of data for over 8000 Wavebouys and Weather Stations around the globe.

Join Pro

Comparision Forecast

View Surf forecast
   
mer. 11/26 10:50 4.5ft 5s 5s 20 29 mph 1016.7mb 83f 77f
9:50 3.5ft 8s 5s 11 16 mph 1017.4mb 82f 78f
8:50 4ft 8s 5s 9 11 mph 1017.2mb 82f 79f
7:50 3.5ft 9s 5s 13 16 mph 1016.2mb 82f 79f
6:50 3ft 9s 6s 11 13 mph 1016mb 82f 78f
5:50 3.5ft 8s 6s 4 9 mph 1014.8mb 83f 76f
4:50 4ft 9s 6s 16 20 mph 1014.4mb 83f 78f
3:50 4ft 8s 6s 7 11 mph 1013.7mb 83f 79f
2:50 4ft 8s 6s 7
mph
1013.6mb 83f 82f
1:50 4ft 8s 5s 7 9 mph 1013.3mb 83f 82f
12:50 4ft 8s 5s 7 9 mph 1013.5mb 83f 83f
mar. 11/25 11:50 4.5ft 8s 6s 7 9 mph 1013.8mb 83f 83f
10:50 4.5ft 9s 6s 11
mph
1014mb 83f 83f
9:50 4.5ft 8s 5s 11
mph
1014.1mb 83f 83f
8:50 4ft 6s 5s 13
mph
1013.9mb 83f 83f
7:50 4ft 8s 5s 16 18 mph 1013.5mb 83f 83f
6:50 4ft 6s 5s 13 16 mph 1013.1mb 83f 83f
5:50 4.5ft 8s 5s 11 16 mph 1012.3mb 83f 83f
4:50 4.5ft 8s 5s 13 16 mph 1011.8mb 83f 83f
3:50 4.5ft 5s 5s 13 16 mph 1011.3mb 83f 83f
2:50 4.5ft 5s 5s 16 18 mph 1011mb 83f 83f
1:50 4ft 5s 5s 16 20 mph 1011.4mb 83f 84f
12:50 4.5ft 8s 5s 16 18 mph 1012.1mb 83f 83f
11:50 4.5ft 5s 5s 18 20 mph 1012.6mb 83f 83f
10:50 4ft 7s 5s 20 25 mph 1013.4mb 83f 83f
9:50 4ft 7s 5s 16 20 mph 1014.2mb 83f 83f
8:50 4ft 7s 5s 16 20 mph 1014.3mb 83f 83f
7:50 4ft 7s 5s 16 18 mph 1014mb 83f 83f
6:50 4ft 7s 5s 18 20 mph 1013.6mb 83f 83f
5:50 4ft 7s 5s 16 18 mph 1013mb 83f 83f
4:50 4ft 8s 5s 16 18 mph 1012.2mb 83f 83f
3:50 3.5ft 8s 5s 13 16 mph 1012.2mb 83f 82f
2:50 3.5ft 7s 5s 13 16 mph 1011.9mb 83f 82f
1:50 3.5ft 6s 5s 16 18 mph 1012.3mb 83f 82f
12:50 3.5ft 7s 5s 13 16 mph 1012.9mb 83f 83f
lun. 11/24 11:50 3.5ft 6s 5s 13 16 mph 1013.5mb 83f 82f
10:50 3.5ft 8s 5s 9 11 mph 1013.9mb 83f 83f
8:50 3.5ft 6s 5s 13 16 mph 1013.8mb 83f 82f
7:50 3.5ft 6s 5s 13 16 mph 1013.1mb 83f 82f
6:50 3.5ft 5s 5s 13 16 mph 1012.2mb 83f 82f
5:50 3.5ft 7s 5s 13 16 mph 1011.6mb 83f 83f
4:50 3.5ft 6s 5s 11 13 mph 1011.3mb 83f 83f
3:50 4ft 8s 5s 11 13 mph 1011.1mb 83f 83f
2:50 3.5ft 6s 5s 9 11 mph 1011mb 83f 83f
1:50 4ft 6s 5s 9 11 mph 1011mb 83f 83f
12:50 3.5ft 5s 5s 11 13 mph 1011.2mb 83f 83f
11:50 3.5ft 5s 5s 11 13 mph 1012.4mb 83f 83f
10:50 3.5ft 5s 5s 20 34 mph 1013mb 83f 82f
9:50 3.5ft 6s 5s 13 18 mph 1013.5mb 83f 83f
8:50 3.5ft 7s 5s 16 18 mph 1013.2mb 83f 83f
7:50 3.5ft 5s 5s 13 16 mph 1012.8mb 83f 83f
6:50 3.5ft 5s 5s 16 18 mph 1011.9mb 83f 83f
5:50 3.5ft 7s 5s 16 18 mph 1011.4mb 83f 83f
4:50 4ft 6s 5s 11 13 mph 1010.8mb 83f 83f
3:50 3.5ft 7s 5s 11 13 mph 1010.3mb 83f 82f
2:50 3.5ft 6s 5s 13 16 mph 1010.3mb 83f 82f
1:50 3.5ft 5s 5s 13 16 mph 1010.3mb 83f 82f
12:50 4ft 6s 5s 18 20 mph 1010.3mb 83f 82f
dim. 11/23 11:50 3.5ft 5s 5s 18 20 mph 1010.4mb 83f 82f
10:50 3.5ft 5s 4s 16 18 mph 1011.2mb 83f 82f
9:50 3.5ft 6s 4s 18 20 mph 1011.3mb 83f 83f
8:50 3.5ft 6s 4s 18 20 mph 1011.2mb 83f 83f
7:50 3.5ft 6s 4s 16 18 mph 1010.7mb 83f 83f
6:50 3.5ft 6s 4s 16 18 mph 1010.2mb 83f 83f
5:50 3.5ft 6s 4s 16 18 mph 1009.7mb 83f 83f
4:50 3.5ft 5s 4s 16 20 mph 1009.1mb 83f 83f
3:50 3.5ft 6s 5s 16 20 mph 1009.5mb 83f 83f
2:50 3.5ft 6s 5s 16 20 mph 1009.4mb 83f 83f
1:50 3.5ft 6s 5s 13 18 mph 1009.8mb 83f 83f
12:50 3.5ft 6s 5s 13 16 mph 1010.4mb 83f 83f
11:50 3.5ft 6s 5s 13 16 mph 1011.8mb 83f 83f
10:50 3.5ft 6s 5s 11 13 mph 1012.8mb 83f 83f
9:50 3.5ft 5s  -  13 16 mph 1013.5mb 83f 83f
8:50 3.5ft 5s 5s 13 16 mph 1013.5mb 83f 83f
7:50 3.5ft 8s 5s 16 18 mph 1013mb 83f 83f
6:50 3.5ft 8s 5s 13 16 mph 1012.4mb 83f 82f
5:50 2.5ft 7s 4s 13 18 mph 1012mb 83f 81f
4:50 2.5ft 8s 5s 13 18 mph 1011.8mb 83f 82f
3:50 2.5ft 9s 5s 11 13 mph 1011.7mb 83f 82f
2:50 2.5ft 5s 5s 9 11 mph 1012mb 83f 82f
1:50 3ft 8s 5s 9 11 mph 1012.3mb 83f 82f
12:50 3ft 8s 5s 11 13 mph 1013.1mb 83f 82f
sam. 11/22 11:50 3ft 8s 5s 13 16 mph 1013.5mb 83f 82f
10:50 3ft 8s 4s 13 16 mph 1013.9mb 83f 82f
9:50 3ft 7s 4s 13 16 mph 1014.3mb 83f 82f
8:50 2.5ft 5s 5s 11 13 mph 1014.4mb 83f 82f
7:50 3ft 5s 5s 13
mph
1014.1mb 83f 82f
6:50 2.5ft 8s 5s 11 13 mph 1013.7mb 83f 82f
5:50 3ft 8s 5s 11 13 mph 1013mb 83f 82f